createdAt,value
2018-05-18T00:01:22.700Z,164.70
2018-05-18T00:03:50.810Z,181.33
2018-05-18T00:06:18.934Z,225.37
2018-05-18T00:08:47.048Z,235.70
2018-05-18T00:11:15.202Z,202.17
2018-05-18T00:13:43.320Z,171.07
2018-05-18T00:16:12.230Z,158.87
2018-05-18T00:18:40.380Z,143.20
2018-05-18T00:21:08.510Z,164.20
2018-05-18T00:23:36.660Z,162.47
2018-05-18T00:26:04.779Z,154.27
2018-05-18T00:28:32.916Z,151.60
2018-05-18T00:31:01.030Z,140.43
2018-05-18T00:33:29.204Z,136.63
2018-05-18T00:35:57.807Z,140.20
2018-05-18T00:38:26.718Z,136.57
2018-05-18T00:40:54.938Z,136.17
2018-05-18T00:43:23.086Z,128.73
2018-05-18T00:45:51.361Z,156.03
2018-05-18T00:48:19.625Z,138.23
2018-05-18T00:50:47.847Z,137.03
2018-05-18T00:53:15.985Z,208.87
2018-05-18T00:55:44.105Z,116.20
2018-05-18T00:58:12.279Z,112.83
2018-05-18T01:00:41.171Z,104.53
2018-05-18T01:03:09.283Z,112.97
2018-05-18T01:05:37.415Z,103.37
2018-05-18T01:08:05.607Z,100.00
2018-05-18T01:10:33.839Z,106.93
2018-05-18T01:13:02.124Z,111.37
2018-05-18T01:15:30.343Z,103.03
2018-05-18T01:17:58.563Z,95.90
2018-05-18T01:20:27.218Z,182.80
2018-05-18T01:22:55.325Z,131.70
2018-05-18T01:25:23.496Z,104.30
2018-05-18T01:27:51.613Z,108.40
2018-05-18T01:30:20.500Z,125.47
2018-05-18T01:32:49.214Z,160.07
2018-05-18T01:35:17.377Z,118.83
2018-05-18T01:37:45.504Z,130.93
2018-05-18T01:40:13.782Z,135.97
2018-05-18T01:42:41.921Z,113.93
2018-05-18T01:45:10.038Z,129.27
2018-05-18T01:47:38.200Z,108.90
2018-05-18T01:50:06.318Z,93.97
2018-05-18T01:52:34.448Z,174.37
2018-05-18T01:55:02.565Z,181.23
2018-05-18T01:57:30.696Z,124.90
2018-05-18T01:59:58.810Z,219.37
2018-05-18T02:02:26.944Z,282.23
2018-05-18T02:04:55.063Z,164.47
2018-05-18T02:07:23.172Z,138.17
2018-05-18T02:09:51.315Z,221.20
2018-05-18T02:12:19.435Z,155.27
2018-05-18T02:14:47.563Z,185.30
2018-05-18T02:17:15.686Z,91.53
2018-05-18T02:19:43.824Z,109.43
2018-05-18T02:22:11.929Z,169.27
2018-05-18T02:24:40.092Z,191.10
2018-05-18T02:27:08.223Z,284.40
2018-05-18T02:29:36.347Z,248.80
2018-05-18T02:32:04.475Z,245.07
2018-05-18T02:34:32.603Z,114.13
2018-05-18T02:37:01.531Z,118.47
2018-05-18T02:39:29.643Z,180.37
2018-05-18T02:41:57.820Z,157.43
2018-05-18T02:44:25.935Z,115.70
2018-05-18T02:46:54.068Z,141.67
2018-05-18T02:49:22.288Z,144.10
2018-05-18T02:51:50.366Z,244.07
2018-05-18T02:54:18.486Z,312.87
2018-05-18T02:56:46.622Z,333.93
2018-05-18T02:59:14.844Z,225.20
2018-05-18T03:01:42.985Z,155.57
2018-05-18T03:04:11.285Z,197.17
2018-05-18T03:06:39.499Z,311.13
2018-05-18T03:09:07.638Z,230.40
2018-05-18T03:11:36.524Z,355.03
2018-05-18T03:14:04.655Z,434.43
2018-05-18T03:16:32.764Z,359.77
2018-05-18T03:19:00.920Z,252.63
2018-05-18T03:21:29.062Z,330.53
2018-05-18T03:23:57.188Z,211.60
2018-05-18T03:26:25.346Z,315.97
2018-05-18T03:28:53.481Z,535.33
2018-05-18T03:31:21.619Z,500.10
2018-05-18T03:33:49.758Z,326.80
2018-05-18T03:36:17.902Z,370.70
2018-05-18T03:38:46.024Z,328.93
2018-05-18T03:41:14.149Z,508.73
2018-05-18T03:43:42.272Z,206.07
2018-05-18T03:46:10.463Z,350.93
2018-05-18T03:48:38.740Z,358.63
2018-05-18T03:51:06.985Z,446.43
2018-05-18T03:53:35.177Z,289.87
2018-05-18T03:56:04.065Z,282.77
2018-05-18T03:58:32.181Z,228.20
2018-05-18T04:01:00.281Z,275.30
2018-05-18T04:06:55.543Z,584.43
2018-05-18T04:09:23.667Z,392.67
2018-05-18T04:11:51.789Z,450.23
2018-05-18T04:14:19.937Z,216.63
2018-05-18T04:16:48.040Z,305.07
2018-05-18T04:19:16.936Z,339.37
2018-05-18T04:21:45.210Z,187.07
2018-05-18T04:24:13.948Z,284.10
2018-05-18T04:26:42.068Z,257.47
2018-05-18T04:29:10.278Z,204.00
2018-05-18T04:31:38.410Z,299.80
2018-05-18T04:34:06.590Z,363.63
2018-05-18T04:36:34.748Z,528.57
2018-05-18T04:39:02.897Z,281.43
2018-05-18T04:41:31.020Z,638.87
2018-05-18T04:43:59.130Z,372.83
2018-05-18T04:46:27.246Z,442.30
2018-05-18T04:48:55.365Z,612.00
2018-05-18T04:51:23.565Z,400.07
2018-05-18T04:53:51.677Z,344.33
2018-05-18T04:56:19.809Z,603.37
2018-05-18T04:58:48.591Z,465.33
2018-05-18T05:01:16.677Z,380.17
2018-05-18T05:03:44.782Z,458.60
2018-05-18T05:06:12.910Z,458.77
2018-05-18T05:08:41.040Z,455.57
2018-05-18T05:11:18.393Z,302.13
2018-05-18T05:13:46.635Z,314.53
2018-05-18T05:16:14.641Z,335.73
2018-05-18T05:18:43.571Z,319.53
2018-05-18T05:21:11.724Z,454.77
2018-05-18T05:23:39.989Z,299.00
2018-05-18T05:26:08.196Z,274.33
2018-05-18T05:28:36.311Z,264.83
2018-05-18T05:31:04.674Z,325.70
2018-05-18T05:33:32.819Z,212.97
2018-05-18T05:36:00.982Z,330.27
2018-05-18T05:38:29.115Z,274.00
2018-05-18T05:40:57.230Z,217.83
2018-05-18T05:43:25.342Z,207.47
2018-05-18T05:45:53.466Z,181.70
2018-05-18T05:48:21.992Z,250.70
2018-05-18T05:50:50.152Z,203.80
2018-05-18T05:53:18.306Z,175.00
2018-05-18T05:55:46.432Z,160.87
2018-05-18T05:58:14.542Z,106.70
2018-05-18T06:00:43.367Z,129.20
2018-05-18T06:03:11.443Z,134.03
2018-05-18T06:05:39.581Z,135.57
2018-05-18T06:08:07.866Z,110.57
2018-05-18T06:10:36.107Z,113.07
2018-05-18T06:13:04.431Z,105.97
2018-05-18T06:15:33.523Z,161.20
2018-05-18T06:18:01.647Z,135.27
2018-05-18T06:20:29.813Z,96.67
2018-05-18T06:22:57.935Z,95.73
2018-05-18T06:25:26.063Z,93.67
2018-05-18T06:27:54.187Z,81.47
2018-05-18T06:30:22.304Z,74.47
2018-05-18T06:32:50.417Z,76.90
2018-05-18T06:35:18.610Z,92.10
2018-05-18T06:37:47.239Z,131.57
2018-05-18T06:40:15.340Z,109.27
2018-05-18T06:42:43.466Z,91.83
2018-05-18T06:45:11.590Z,141.30
2018-05-18T06:47:39.734Z,85.73
2018-05-18T06:50:07.840Z,132.10
2018-05-18T06:52:36.004Z,175.50
2018-05-18T06:55:04.869Z,105.67
2018-05-18T06:57:32.991Z,95.40
2018-05-18T07:00:01.116Z,83.63
2018-05-18T07:02:29.245Z,74.37
2018-05-18T07:04:57.351Z,64.60
2018-05-18T07:07:25.450Z,67.53
2018-05-18T07:09:53.573Z,72.70
2018-05-18T07:12:21.678Z,64.60
2018-05-18T07:14:49.792Z,71.47
2018-05-18T07:17:17.917Z,68.03
2018-05-18T07:19:46.296Z,78.00
2018-05-18T07:22:14.735Z,94.50
2018-05-18T07:24:42.834Z,59.87
2018-05-18T07:27:10.959Z,55.73
2018-05-18T07:29:39.081Z,60.60
2018-05-18T07:32:07.191Z,67.13
2018-05-18T07:34:36.586Z,70.27
2018-05-18T07:37:04.795Z,62.40
2018-05-18T07:39:32.997Z,62.07
2018-05-18T07:42:01.304Z,49.77
2018-05-18T07:44:29.456Z,63.80
2018-05-18T07:46:57.631Z,66.77
2018-05-18T07:49:25.728Z,77.90
2018-05-18T07:51:54.207Z,92.20
2018-05-18T07:54:23.088Z,70.27
2018-05-18T07:56:51.199Z,59.67
2018-05-18T07:59:19.310Z,50.80
2018-05-18T08:01:47.413Z,42.77
2018-05-18T08:04:19.767Z,43.73
2018-05-18T08:06:47.860Z,48.30
2018-05-18T08:09:15.980Z,47.17
2018-05-18T08:11:44.115Z,39.77
2018-05-18T08:14:12.251Z,43.07
2018-05-18T08:16:40.367Z,48.57
2018-05-18T08:19:08.503Z,47.13
2018-05-18T08:21:36.654Z,58.50
2018-05-18T08:24:04.764Z,61.13
2018-05-18T08:26:32.873Z,56.77
2018-05-18T08:29:18.765Z,38.90
2018-05-18T08:31:46.876Z,47.37
2018-05-18T08:34:15.754Z,47.50
2018-05-18T08:36:43.980Z,47.53
2018-05-18T08:39:12.134Z,43.27
2018-05-18T08:41:40.948Z,36.90
2018-05-18T08:44:09.058Z,46.03
2018-05-18T08:46:37.215Z,40.43
2018-05-18T08:49:05.431Z,47.67
2018-05-18T08:51:33.637Z,41.57
2018-05-18T08:54:01.920Z,39.70
2018-05-18T08:56:30.135Z,47.57
2018-05-18T08:58:58.365Z,46.83
2018-05-18T09:01:27.255Z,37.17
2018-05-18T09:03:56.174Z,36.00
2018-05-18T09:06:24.287Z,41.30
2018-05-18T09:08:52.569Z,42.13
2018-05-18T09:11:26.323Z,42.30
2018-05-18T09:13:54.447Z,31.70
2018-05-18T09:16:22.573Z,77.13
2018-05-18T09:18:50.720Z,100.93
2018-05-18T09:21:19.600Z,74.73
2018-05-18T09:23:48.493Z,56.63
2018-05-18T09:26:18.052Z,33.63
2018-05-18T09:28:46.206Z,45.57
2018-05-18T09:31:14.378Z,47.23
2018-05-18T09:33:42.630Z,42.60
2018-05-18T09:36:11.610Z,32.53
2018-05-18T09:38:39.712Z,32.17
2018-05-18T09:41:07.835Z,33.57
2018-05-18T09:43:35.945Z,39.30
2018-05-18T09:46:04.082Z,46.50
2018-05-18T09:48:32.230Z,41.33
2018-05-18T09:51:00.388Z,30.83
2018-05-18T09:53:28.610Z,27.33
2018-05-18T09:55:56.739Z,33.53
2018-05-18T09:58:24.875Z,33.83
2018-05-18T10:00:52.980Z,36.63
2018-05-18T10:03:21.103Z,31.00
2018-05-18T10:05:49.232Z,39.93
2018-05-18T10:08:17.362Z,36.60
2018-05-18T10:10:45.473Z,36.30
2018-05-18T10:13:13.611Z,30.90
2018-05-18T10:15:41.804Z,34.83
2018-05-18T10:18:09.921Z,28.97
2018-05-18T10:20:38.030Z,40.67
2018-05-18T10:23:06.607Z,39.70
2018-05-18T10:25:34.778Z,40.87
2018-05-18T10:28:03.646Z,33.70
2018-05-18T10:30:31.776Z,34.43
2018-05-18T10:32:59.871Z,29.97
2018-05-18T10:35:28.670Z,25.20
2018-05-18T10:37:56.774Z,21.13
2018-05-18T10:40:24.897Z,21.40
2018-05-18T10:42:53.010Z,21.83
2018-05-18T10:45:21.180Z,22.37
2018-05-18T10:47:49.241Z,19.13
2018-05-18T10:50:17.387Z,29.13
2018-05-18T10:52:45.587Z,30.17
2018-05-18T10:55:14.451Z,23.43
2018-05-18T10:57:42.575Z,29.97
2018-05-18T11:00:10.670Z,21.30
2018-05-18T11:02:38.815Z,25.30
2018-05-18T11:05:06.924Z,26.27
2018-05-18T11:07:35.026Z,25.27
2018-05-18T11:10:03.150Z,24.70
2018-05-18T11:12:31.286Z,18.37
2018-05-18T11:14:59.410Z,19.63
2018-05-18T11:17:27.509Z,17.47
2018-05-18T11:19:56.510Z,14.80
2018-05-18T11:22:24.566Z,17.73
2018-05-18T11:24:52.694Z,18.13
2018-05-18T11:27:20.822Z,23.07
2018-05-18T11:29:49.510Z,27.33
2018-05-18T11:32:17.642Z,27.10
2018-05-18T11:34:45.764Z,26.13
2018-05-18T11:37:13.898Z,20.07
2018-05-18T11:39:42.016Z,21.77
2018-05-18T11:42:10.129Z,21.17
2018-05-18T11:44:38.245Z,18.87
2018-05-18T11:47:06.373Z,18.73
2018-05-18T11:49:34.479Z,22.10
2018-05-18T11:52:02.596Z,19.73
2018-05-18T11:54:30.698Z,20.73
2018-05-18T11:56:58.819Z,19.33
2018-05-18T11:59:26.997Z,29.20
2018-05-18T12:01:55.124Z,28.07
2018-05-18T12:04:23.233Z,26.13
2018-05-18T12:06:51.355Z,34.00
2018-05-18T12:09:19.468Z,29.33
2018-05-18T12:11:47.597Z,18.13
2018-05-18T12:14:15.775Z,19.60
2018-05-18T12:16:43.899Z,23.53
2018-05-18T12:19:12.028Z,18.33
2018-05-18T12:21:40.187Z,17.60
2018-05-18T12:24:08.382Z,19.87
2018-05-18T12:26:36.597Z,18.40
2018-05-18T12:29:05.408Z,19.67
2018-05-18T12:31:33.640Z,17.67
2018-05-18T12:34:02.482Z,22.57
2018-05-18T12:36:30.616Z,21.00
2018-05-18T12:38:58.738Z,21.93
2018-05-18T12:41:26.862Z,28.23
2018-05-18T12:44:04.065Z,20.77
2018-05-18T12:46:34.857Z,22.27
2018-05-18T12:49:02.963Z,16.67
2018-05-18T12:51:31.121Z,19.30
2018-05-18T12:53:59.296Z,15.43
2018-05-18T12:56:32.057Z,16.60
2018-05-18T12:59:00.233Z,16.37
2018-05-18T13:01:28.345Z,12.10
2018-05-18T13:03:56.723Z,17.00
2018-05-18T13:06:24.849Z,17.17
2018-05-18T13:08:52.961Z,16.37
2018-05-18T13:11:21.109Z,14.33
2018-05-18T13:13:49.499Z,18.97
2018-05-18T13:16:17.739Z,14.20
2018-05-18T13:18:45.865Z,17.50
2018-05-18T13:21:14.014Z,17.57
2018-05-18T13:23:43.115Z,13.33
2018-05-18T13:26:11.233Z,14.40
2018-05-18T13:28:40.105Z,14.47
2018-05-18T13:31:08.284Z,13.80
2018-05-18T13:33:36.422Z,13.47
2018-05-18T13:36:05.091Z,11.43
2018-05-18T13:38:37.124Z,12.60
2018-05-18T13:41:05.622Z,11.20
2018-05-18T13:43:33.792Z,14.40
2018-05-18T13:46:02.383Z,13.03
2018-05-18T13:48:30.570Z,14.20
2018-05-18T13:50:58.841Z,11.87
2018-05-18T13:53:26.954Z,11.10
2018-05-18T13:55:55.070Z,12.73
2018-05-18T13:58:23.192Z,10.67
2018-05-18T14:00:51.291Z,14.73
2018-05-18T14:03:19.418Z,9.30
2018-05-18T14:05:47.551Z,13.13
2018-05-18T14:08:15.676Z,11.27
2018-05-18T14:10:43.848Z,15.30
2018-05-18T14:13:12.071Z,11.67
2018-05-18T14:15:40.216Z,10.83
2018-05-18T14:18:08.337Z,9.77
2018-05-18T14:20:37.034Z,13.23
2018-05-18T14:23:05.158Z,11.23
2018-05-18T14:25:33.353Z,12.37
2018-05-18T14:28:01.570Z,13.13
2018-05-18T14:30:29.802Z,15.10
2018-05-18T14:32:57.957Z,10.30
2018-05-18T14:35:26.074Z,13.03
2018-05-18T14:37:54.223Z,13.60
2018-05-18T14:40:22.354Z,11.57
2018-05-18T14:42:50.621Z,12.77
2018-05-18T14:45:23.230Z,9.37
2018-05-18T14:47:51.358Z,11.07
2018-05-18T14:50:19.590Z,10.73
2018-05-18T14:52:48.474Z,13.57
2018-05-18T14:55:16.647Z,9.00
2018-05-18T14:57:44.772Z,12.80
2018-05-18T15:00:12.907Z,9.00
2018-05-18T15:02:41.018Z,12.77
2018-05-18T15:05:09.140Z,9.43
2018-05-18T15:07:37.272Z,12.23
2018-05-18T15:10:05.438Z,10.23
2018-05-18T15:12:33.550Z,11.93
2018-05-18T15:15:01.665Z,13.13
2018-05-18T15:17:29.849Z,10.60
2018-05-18T15:19:57.964Z,10.87
2018-05-18T15:22:26.094Z,11.83
2018-05-18T15:24:54.294Z,11.03
2018-05-18T15:27:22.508Z,11.43
2018-05-18T15:29:51.454Z,11.47
2018-05-18T15:32:19.774Z,9.30
2018-05-18T15:34:47.890Z,9.93
2018-05-18T15:37:16.580Z,9.67
2018-05-18T15:39:44.703Z,14.90
2018-05-18T15:42:13.583Z,8.27
2018-05-18T15:44:41.709Z,11.70
2018-05-18T15:47:09.829Z,8.53
2018-05-18T15:49:37.967Z,14.70
2018-05-18T15:52:06.117Z,10.80
2018-05-18T15:54:34.235Z,13.20
2018-05-18T15:57:02.595Z,9.87
2018-05-18T15:59:30.702Z,11.90
2018-05-18T16:01:58.978Z,13.33
2018-05-18T16:04:27.148Z,12.17
2018-05-18T16:06:55.298Z,12.83
2018-05-18T16:09:23.966Z,13.87
2018-05-18T16:11:52.264Z,12.37
2018-05-18T16:14:20.373Z,9.83
2018-05-18T16:16:48.535Z,12.83
2018-05-18T16:19:16.715Z,13.63
2018-05-18T16:21:45.711Z,12.23
2018-05-18T16:24:13.813Z,10.40
2018-05-18T16:26:41.904Z,12.43
2018-05-18T16:29:10.798Z,10.27
2018-05-18T16:31:38.904Z,9.93
2018-05-18T16:34:07.816Z,11.93
2018-05-18T16:36:35.919Z,11.47
2018-05-18T16:39:04.052Z,9.90
2018-05-18T16:41:32.144Z,13.27
2018-05-18T16:44:00.251Z,9.83
2018-05-18T16:46:28.366Z,16.17
2018-05-18T16:48:56.603Z,12.90
2018-05-18T16:51:24.752Z,9.40
2018-05-18T16:53:53.623Z,9.47
2018-05-18T16:56:21.744Z,8.10
2018-05-18T16:58:49.839Z,7.70
2018-05-18T17:01:17.963Z,7.83
2018-05-18T17:03:46.101Z,8.80
2018-05-18T17:06:14.632Z,10.23
2018-05-18T17:08:42.733Z,9.27
2018-05-18T17:11:11.002Z,7.57
2018-05-18T17:13:39.803Z,9.23
2018-05-18T17:16:07.899Z,9.50
2018-05-18T17:18:36.728Z,9.77
2018-05-18T17:21:04.829Z,5.17
2018-05-18T17:23:33.047Z,7.27
2018-05-18T17:26:01.415Z,6.30
2018-05-18T17:28:29.544Z,7.23
2018-05-18T17:30:57.728Z,7.57
2018-05-18T17:33:26.457Z,7.10
2018-05-18T17:35:54.577Z,5.90
2018-05-18T17:38:22.949Z,6.90
2018-05-18T17:40:51.853Z,6.00
2018-05-18T17:43:20.095Z,7.30
2018-05-18T17:45:48.318Z,7.80
2018-05-18T17:48:16.575Z,9.37
2018-05-18T17:50:44.707Z,5.07
2018-05-18T17:53:12.926Z,7.53
2018-05-18T17:55:41.134Z,6.40
2018-05-18T17:58:09.390Z,7.87
2018-05-18T18:00:38.271Z,6.27
2018-05-18T18:03:06.480Z,6.50
2018-05-18T18:05:34.611Z,5.97
2018-05-18T18:08:02.762Z,6.30
2018-05-18T18:10:30.913Z,6.90
2018-05-18T18:12:59.040Z,8.93
2018-05-18T18:15:27.213Z,14.07
2018-05-18T18:17:55.405Z,10.93
2018-05-18T18:20:23.661Z,7.00
2018-05-18T18:22:51.844Z,9.53
2018-05-18T18:25:19.983Z,8.17
2018-05-18T18:27:48.109Z,7.50
2018-05-18T18:30:16.269Z,9.17
2018-05-18T18:32:44.403Z,7.80
2018-05-18T18:35:12.547Z,10.80
2018-05-18T18:37:41.061Z,5.83
2018-05-18T18:40:09.637Z,8.47
2018-05-18T18:42:37.798Z,6.43
2018-05-18T18:45:06.375Z,5.50
2018-05-18T18:47:34.751Z,7.03
2018-05-18T18:50:02.898Z,7.60
2018-05-18T18:52:31.049Z,9.77
2018-05-18T18:54:59.155Z,8.97
2018-05-18T18:57:27.394Z,9.50
2018-05-18T18:59:55.531Z,6.60
2018-05-18T19:02:23.677Z,11.17
2018-05-18T19:04:51.770Z,7.77
2018-05-18T19:07:20.704Z,9.93
2018-05-18T19:09:48.801Z,9.97
2018-05-18T19:12:16.930Z,6.57
2018-05-18T19:14:45.043Z,15.77
2018-05-18T19:17:13.154Z,8.53
2018-05-18T19:19:41.260Z,6.73
2018-05-18T19:22:09.584Z,9.50
2018-05-18T19:24:37.764Z,7.70
2018-05-18T19:27:05.898Z,10.83
2018-05-18T19:29:34.023Z,11.13
2018-05-18T19:32:02.120Z,10.33
2018-05-18T19:34:30.272Z,12.17
2018-05-18T19:36:58.740Z,8.63
2018-05-18T19:39:26.852Z,10.57
2018-05-18T19:41:58.877Z,9.13
2018-05-18T19:44:26.992Z,9.97
2018-05-18T19:46:55.283Z,9.43
2018-05-18T19:49:23.827Z,10.33
2018-05-18T19:51:51.985Z,11.70
2018-05-18T19:54:31.091Z,8.83
2018-05-18T19:56:59.204Z,9.63
2018-05-18T19:59:27.323Z,8.43
2018-05-18T20:01:55.441Z,7.97
2018-05-18T20:04:23.611Z,8.57
2018-05-18T20:06:51.751Z,11.00
2018-05-18T20:09:20.007Z,8.33
2018-05-18T20:11:48.140Z,9.57
2018-05-18T20:14:16.311Z,6.53
2018-05-18T20:16:44.433Z,10.90
2018-05-18T20:19:12.562Z,8.63
2018-05-18T20:21:40.683Z,14.60
2018-05-18T20:24:08.790Z,8.33
2018-05-18T20:26:36.912Z,7.87
2018-05-18T20:29:05.152Z,11.30
2018-05-18T20:31:33.406Z,9.53
2018-05-18T20:34:01.639Z,7.77
2018-05-18T20:36:30.147Z,8.60
2018-05-18T20:38:59.030Z,6.77
2018-05-18T20:41:27.153Z,9.03
2018-05-18T20:43:55.279Z,12.70
2018-05-18T20:46:23.418Z,10.37
2018-05-18T20:48:56.687Z,8.10
2018-05-18T20:51:24.866Z,8.43
2018-05-18T20:53:53.018Z,11.33
2018-05-18T20:56:21.137Z,9.27
2018-05-18T20:59:20.568Z,9.73
2018-05-18T21:01:49.794Z,7.00
2018-05-18T21:04:35.082Z,10.87
2018-05-18T21:07:03.551Z,12.50
2018-05-18T21:09:31.729Z,9.90
2018-05-18T21:11:59.949Z,7.17
2018-05-18T21:14:28.200Z,9.33
2018-05-18T21:16:56.628Z,9.97
2018-05-18T21:19:25.558Z,8.73
2018-05-18T21:21:53.655Z,9.30
2018-05-18T21:24:21.764Z,8.63
2018-05-18T21:26:50.545Z,10.80
2018-05-18T21:29:30.067Z,10.70
2018-05-18T21:31:58.471Z,8.70
2018-05-18T21:34:26.576Z,8.27
2018-05-18T21:36:55.285Z,9.37
2018-05-18T21:39:23.410Z,9.40
2018-05-18T21:41:51.598Z,8.67
2018-05-18T21:44:19.755Z,9.87
2018-05-18T21:46:47.870Z,9.87
2018-05-18T21:49:16.018Z,10.40
2018-05-18T21:51:44.735Z,9.40
2018-05-18T21:54:13.292Z,8.67
2018-05-18T21:56:41.404Z,9.70
2018-05-18T21:59:13.566Z,9.73
2018-05-18T22:01:41.684Z,7.87
2018-05-18T22:04:09.802Z,12.57
2018-05-18T22:06:37.944Z,15.27
2018-05-18T22:09:06.818Z,10.50
2018-05-18T22:11:35.670Z,8.73
2018-05-18T22:14:03.794Z,10.57
2018-05-18T22:16:31.931Z,8.67
2018-05-18T22:19:00.139Z,8.67
2018-05-18T22:21:29.084Z,10.17
2018-05-18T22:23:57.234Z,9.60
2018-05-18T22:26:26.322Z,9.03
2018-05-18T22:28:54.422Z,9.97
2018-05-18T22:31:22.526Z,11.23
2018-05-18T22:33:51.435Z,8.87
2018-05-18T22:36:19.617Z,8.50
2018-05-18T22:38:54.186Z,11.60
2018-05-18T22:41:22.517Z,11.20
2018-05-18T22:43:50.607Z,12.07
2018-05-18T22:46:18.727Z,9.83
2018-05-18T22:48:47.625Z,10.80
2018-05-18T22:51:15.813Z,13.93
2018-05-18T22:53:48.733Z,10.73
2018-05-18T22:56:16.903Z,12.43
2018-05-18T22:58:45.007Z,10.60
2018-05-18T23:01:13.663Z,10.30
2018-05-18T23:03:41.791Z,12.60
2018-05-18T23:06:09.913Z,12.30
2018-05-18T23:08:38.036Z,11.60
2018-05-18T23:11:06.160Z,14.50
2018-05-18T23:13:35.050Z,15.43
2018-05-18T23:16:03.186Z,11.90
2018-05-18T23:18:31.397Z,11.97
2018-05-18T23:20:59.508Z,14.57
2018-05-18T23:23:28.407Z,10.60
2018-05-18T23:25:56.546Z,9.80
2018-05-18T23:28:24.738Z,11.17
2018-05-18T23:30:53.705Z,9.57
2018-05-18T23:33:21.737Z,12.50
2018-05-18T23:35:49.854Z,11.43
2018-05-18T23:38:17.980Z,11.83
2018-05-18T23:40:46.370Z,10.23
2018-05-18T23:43:14.474Z,11.03
2018-05-18T23:45:42.614Z,12.33
2018-05-18T23:48:10.722Z,14.80
2018-05-18T23:50:38.972Z,12.83
2018-05-18T23:53:07.538Z,12.17
2018-05-18T23:55:35.647Z,11.63
2018-05-18T23:58:03.788Z,13.27
